KMCC/MCC METAR and TAF weather

Enter ICAO airport designator
Station Type Date Time Source
KMCC METAR 2019/12/07 04:55 UTC NOAA

KMCC 070455Z AUTO 14010G18KT 9SM -RA FEW029 OVC060 16/10 A2996 RMK AO2


Station Type Date Time Source
KMCC Decoded METAR 2019/12/07 04:55 UTC NOAA

Sacramento, McClellan Airfield Airport, CA, United States (KMCC) 38-40N 121-24W
Dec 06, 2019 - 11:55 PM EST / 2019.12.07 0455 UTC
Wind: from the SE (140 degrees) at 12 MPH (10 KT) gusting to 21 MPH (18 KT):0
Visibility: 9 mile(s):0
Sky conditions: overcast
Weather: light rain
Temperature: 60 F (16 C)
Dew Point: 50 F (10 C)
Relative Humidity: 67%
Pressure (altimeter): 29.96 in. Hg (1014 hPa)
ob: KMCC 070455Z AUTO 14010G18KT 9SM -RA FEW029 OVC060 16/10 A2996 RMK AO2
cycle: 5

Station Type Date Time Source
KMCC TAF 2019/12/06 18:41 UTC NOAA

TAF KMCC 061732Z 0618/0718 16010KT P6SM OVC050
FM062300 16012G18KT P6SM OVC050
FM070300 15018G24KT P6SM -RA BKN025 OVC050
FM070600 14019G28KT 4SM -RA OVC025
FM070900 17020G35KT 4SM -RA OVC025

Example: see airport list